Time;durP1;ratioP1;P1;durP2;ratioP2;P2;SDS_P1;SDS_P2;PMS_P1;PMS_P2;Temp;Humidity;BMP_temperature;BMP_pressure;BME280_temperature;BME280_humidity;BME280_pressure;Samples;Min_cycle;Max_cycle;Signal;HPM_P1;HPM_P2
2023/10/03 00:01:20;;;;;;;;;;;;;;;16.97;54.50;100346.38;5089121;28;19920;-71
2023/10/03 00:03:46;;;;;;;;;;;;;;;17.19;53.85;100340.53;5071618;28;19928;-71
2023/10/03 00:06:12;;;;;;;;;;;;;;;17.13;53.97;100334.31;5082605;28;19916;-71
2023/10/03 00:08:38;;;;;;;;;;;;;;;17.34;53.37;100338.97;5083176;28;19969;-71
2023/10/03 00:11:04;;;;;;;;;;;;;;;17.48;53.05;100344.22;5089352;28;19927;-71
2023/10/03 00:13:31;;;;;;;;;;;;;;;16.96;54.33;100341.09;5091939;28;19935;-70
2023/10/03 00:15:56;;;;;;;;;;;;;;;16.85;55.11;100343.56;5092007;28;19912;-71
2023/10/03 00:18:21;;;;;;;;;;;;;;;16.88;55.10;100342.84;5091727;28;19920;-70
2023/10/03 00:20:47;;;;;;;;;;;;;;;17.26;54.19;100335.09;5092108;28;19916;-71
2023/10/03 00:23:12;;;;;;;;;;;;;;;17.61;53.52;100340.13;5090228;28;19920;-71
2023/10/03 00:25:38;;;;;;;;;;;;;;;17.77;53.55;100334.50;5074308;28;19916;-71
2023/10/03 00:28:06;;;;;;;;;;;;;;;17.81;53.37;100337.44;5071249;28;19920;-70
2023/10/03 00:30:31;;;;;;;;;;;;;;;18.04;53.01;100334.81;5072727;28;20184;-71
2023/10/03 00:32:57;;;;;;;;;;;;;;;18.02;52.48;100337.16;5071042;28;19922;-71
2023/10/03 00:35:24;;;;;;;;;;;;;;;18.19;52.36;100329.50;5071380;28;19916;-71
2023/10/03 00:37:53;;;;;;;;;;;;;;;18.29;51.94;100328.16;5071499;28;20015;-70
2023/10/03 00:42:48;;;;;;;;;;;;;;;18.47;51.64;100326.56;5092033;28;19920;-70
2023/10/03 00:45:21;;;;;;;;;;;;;;;18.48;51.33;100330.22;5091044;28;19959;-71
2023/10/03 00:47:48;;;;;;;;;;;;;;;18.48;51.33;100327.38;5088832;28;20010;-71
2023/10/03 00:50:15;;;;;;;;;;;;;;;18.55;51.20;100330.38;5072479;28;19920;-71
2023/10/03 00:52:42;;;;;;;;;;;;;;;18.47;51.60;100326.56;5071677;28;19921;-71
2023/10/03 00:55:07;;;;;;;;;;;;;;;18.41;51.47;100327.19;5084969;28;19916;-71
2023/10/03 00:57:32;;;;;;;;;;;;;;;18.40;51.33;100329.19;5075722;28;19917;-70
2023/10/03 00:59:58;;;;;;;;;;;;;;;18.36;51.20;100328.31;5079276;28;19927;-70
2023/10/03 01:02:24;;;;;;;;;;;;;;;18.12;52.17;100332.19;5083809;28;19947;-71
2023/10/03 01:04:49;;;;;;;;;;;;;;;18.35;51.34;100333.16;5086293;28;19916;-71
2023/10/03 01:07:14;;;;;;;;;;;;;;;18.26;51.63;100329.69;5073964;28;19924;-71
2023/10/03 01:09:39;;;;;;;;;;;;;;;18.29;51.34;100331.78;5072400;28;19963;-71
2023/10/03 01:12:06;;;;;;;;;;;;;;;18.05;52.38;100346.97;5082279;28;19935;-71
2023/10/03 01:14:34;;;;;;;;;;;;;;;18.12;52.10;100340.66;5089690;28;19916;-70
2023/10/03 01:17:01;;;;;;;;;;;;;;;18.23;51.55;100339.72;5096880;28;20391;-71
2023/10/03 01:19:30;;;;;;;;;;;;;;;17.95;52.25;100342.63;5091212;28;19912;-71
2023/10/03 01:21:56;;;;;;;;;;;;;;;17.66;52.90;100341.88;5091360;28;19973;-71
2023/10/03 01:24:24;;;;;;;;;;;;;;;17.35;53.91;100334.94;5091317;28;19948;-71
2023/10/03 01:26:52;;;;;;;;;;;;;;;17.28;54.24;100332.75;5091359;28;19920;-71
2023/10/03 01:29:18;;;;;;;;;;;;;;;17.40;53.91;100327.03;5088506;28;19927;-71
2023/10/03 01:31:43;;;;;;;;;;;;;;;17.48;53.88;100330.88;5090996;28;20416;-71
2023/10/03 01:34:09;;;;;;;;;;;;;;;17.35;54.03;100329.28;5091187;28;19912;-71
2023/10/03 01:36:34;;;;;;;;;;;;;;;17.09;54.76;100339.91;5091264;28;20008;-71
2023/10/03 01:38:59;;;;;;;;;;;;;;;17.16;54.74;100336.44;5091143;28;20306;-71
2023/10/03 01:41:25;;;;;;;;;;;;;;;17.20;54.90;100330.91;5091286;28;19919;-71
2023/10/03 01:43:50;;;;;;;;;;;;;;;17.17;55.01;100323.97;5091063;28;19951;-71
2023/10/03 01:46:19;;;;;;;;;;;;;;;16.83;56.03;100335.47;5085116;28;19917;-71
2023/10/03 01:48:44;;;;;;;;;;;;;;;16.87;55.80;100334.75;5074227;28;19928;-70
2023/10/03 01:51:10;;;;;;;;;;;;;;;16.81;55.89;100337.81;5075557;28;19939;-71
2023/10/03 01:53:35;;;;;;;;;;;;;;;16.95;55.53;100333.75;5081485;28;20389;-71
2023/10/03 01:56:03;;;;;;;;;;;;;;;16.95;55.23;100333.75;5092966;28;20422;-70
2023/10/03 01:58:28;;;;;;;;;;;;;;;17.04;54.95;100334.47;5082320;28;19970;-71
2023/10/03 02:00:53;;;;;;;;;;;;;;;16.97;55.16;100334.25;5077226;28;19921;-71
2023/10/03 02:03:21;;;;;;;;;;;;;;;17.00;54.98;100335.56;5087106;28;19995;-71
2023/10/03 02:05:48;;;;;;;;;;;;;;;16.95;55.14;100328.94;5092726;28;20453;-71
2023/10/03 02:08:15;;;;;;;;;;;;;;;16.95;55.03;100330.94;5084296;28;20019;-70
2023/10/03 02:10:41;;;;;;;;;;;;;;;17.03;54.90;100334.84;5080880;28;19916;-71
2023/10/03 02:13:14;;;;;;;;;;;;;;;16.96;55.06;100339.06;5092779;28;20310;-71
2023/10/03 02:16:07;;;;;;;;;;;;;;;16.86;55.30;100339.56;5091593;28;19923;-71
2023/10/03 02:18:33;;;;;;;;;;;;;;;16.76;56.09;100334.41;5090961;28;19916;-71
2023/10/03 02:21:01;;;;;;;;;;;;;;;16.44;56.87;100337.06;5093800;28;19939;-70
2023/10/03 02:23:27;;;;;;;;;;;;;;;16.51;57.16;100334.44;5093833;28;20006;-70
2023/10/03 02:25:53;;;;;;;;;;;;;;;16.55;57.37;100339.03;5088108;28;20407;-71
2023/10/03 02:28:20;;;;;;;;;;;;;;;16.48;57.86;100338.81;5082786;28;19920;-70
2023/10/03 02:30:47;;;;;;;;;;;;;;;16.49;57.66;100336.81;5087200;28;19938;-70
2023/10/03 02:33:16;;;;;;;;;;;;;;;16.46;57.46;100346.00;5093587;28;19916;-71
2023/10/03 02:35:42;;;;;;;;;;;;;;;16.24;58.42;100345.28;5074815;28;19916;-71
2023/10/03 02:38:30;;;;;;;;;;;;;;;16.14;58.97;100347.38;5090509;28;20413;-71
2023/10/03 02:40:57;;;;;;;;;;;;;;;16.24;58.83;100343.28;5093397;28;20394;-71
2023/10/03 02:43:24;;;;;;;;;;;;;;;16.22;58.92;100344.81;5093674;28;19951;-71
2023/10/03 02:45:49;;;;;;;;;;;;;;;16.04;59.48;100345.03;5073867;28;19923;-70
2023/10/03 02:48:15;;;;;;;;;;;;;;;15.99;60.07;100348.09;5082600;28;20375;-70
2023/10/03 02:50:45;;;;;;;;;;;;;;;15.95;60.35;100347.94;5081190;28;19966;-71
2023/10/03 02:53:12;;;;;;;;;;;;;;;15.96;60.61;100343.97;5090631;28;20361;-70
2023/10/03 02:55:38;;;;;;;;;;;;;;;15.95;60.61;100345.13;5091391;28;19923;-70
2023/10/03 02:58:05;;;;;;;;;;;;;;;15.93;60.70;100349.50;5085420;28;19924;-71
2023/10/03 03:00:32;;;;;;;;;;;;;;;15.92;60.86;100353.47;5077205;28;19926;-70
2023/10/03 03:02:58;;;;;;;;;;;;;;;15.74;61.56;100350.81;5078374;28;19934;-70
2023/10/03 03:05:24;;;;;;;;;;;;;;;15.81;61.01;100364.34;5089849;28;20014;-71
2023/10/03 03:07:49;;;;;;;;;;;;;;;15.78;61.07;100360.22;5092854;28;19916;-71
2023/10/03 03:10:17;;;;;;;;;;;;;;;15.75;61.32;100354.47;5083571;28;19973;-71
2023/10/03 03:12:43;;;;;;;;;;;;;;;15.73;61.65;100352.00;5088444;28;20370;-70
2023/10/03 03:15:11;;;;;;;;;;;;;;;15.81;61.57;100351.09;5077897;28;20491;-71
2023/10/03 03:17:40;;;;;;;;;;;;;;;15.86;61.85;100353.69;5077861;28;19920;-70
2023/10/03 03:20:10;;;;;;;;;;;;;;;15.89;61.72;100356.97;5088112;28;19916;-71
2023/10/03 03:22:38;;;;;;;;;;;;;;;15.88;61.51;100358.13;5072616;28;19923;-70
2023/10/03 03:25:05;;;;;;;;;;;;;;;15.86;61.23;100348.03;5072663;28;19920;-71
2023/10/03 03:27:39;;;;;;;;;;;;;;;15.90;61.08;100345.38;5089793;28;19916;-71
2023/10/03 03:30:33;;;;;;;;;;;;;;;15.63;62.16;100341.16;5075389;28;19920;-70
2023/10/03 03:32:59;;;;;;;;;;;;;;;15.55;62.46;100340.09;5090559;28;19923;-70
2023/10/03 03:35:25;;;;;;;;;;;;;;;15.38;63.21;100341.09;5074672;28;19916;-71
2023/10/03 03:37:55;;;;;;;;;;;;;;;15.40;63.58;100344.38;5082346;28;19923;-71
2023/10/03 03:40:31;;;;;;;;;;;;;;;15.29;63.32;100341.19;5092231;28;19920;-71
2023/10/03 03:42:58;;;;;;;;;;;;;;;15.28;63.50;100337.53;5089990;28;19948;-70
2023/10/03 03:45:23;;;;;;;;;;;;;;;15.27;63.64;100335.88;5089908;28;19924;-70
2023/10/03 03:47:51;;;;;;;;;;;;;;;15.12;64.49;100344.97;5090030;28;19922;-71
2023/10/03 03:50:17;;;;;;;;;;;;;;;15.15;64.39;100341.47;5074602;28;20413;-72
2023/10/03 03:52:43;;;;;;;;;;;;;;;15.18;64.12;100345.59;5077550;28;19964;-71
2023/10/03 03:55:08;;;;;;;;;;;;;;;15.18;63.84;100337.13;5086048;28;19917;-71
2023/10/03 03:57:34;;;;;;;;;;;;;;;15.11;64.13;100340.50;5071960;28;19920;-71
2023/10/03 04:00:05;;;;;;;;;;;;;;;15.07;64.34;100342.34;5082986;28;19968;-71
2023/10/03 04:02:32;;;;;;;;;;;;;;;15.03;63.63;100342.25;5090249;28;20008;-65
2023/10/03 04:04:57;;;;;;;;;;;;;;;15.15;63.19;100338.63;5090508;28;19915;-67
2023/10/03 04:07:22;;;;;;;;;;;;;;;15.19;62.80;100339.59;5076118;28;20327;-69
2023/10/03 04:09:47;;;;;;;;;;;;;;;15.17;62.66;100344.75;5073568;28;19923;-69
2023/10/03 04:12:13;;;;;;;;;;;;;;;15.17;62.21;100341.94;5081281;28;20383;-69
2023/10/03 04:14:38;;;;;;;;;;;;;;;15.05;62.43;100350.31;5075706;28;20413;-67
2023/10/03 04:17:04;;;;;;;;;;;;;;;15.09;62.07;100348.50;5090209;28;19920;-68
2023/10/03 04:19:29;;;;;;;;;;;;;;;15.10;61.70;100347.31;5083021;28;19924;-69
2023/10/03 04:21:55;;;;;;;;;;;;;;;15.02;61.91;100347.03;5081083;28;19947;-67
2023/10/03 04:24:20;;;;;;;;;;;;;;;14.98;62.23;100342.44;5083945;28;20349;-68
2023/10/03 04:26:46;;;;;;;;;;;;;;;14.94;61.90;100341.47;5071700;28;19913;-68
2023/10/03 04:29:13;;;;;;;;;;;;;;;14.98;61.47;100353.69;5079730;28;19963;-68
2023/10/03 04:31:38;;;;;;;;;;;;;;;15.00;61.09;100352.19;5089061;28;20375;-68
2023/10/03 04:34:04;;;;;;;;;;;;;;;14.96;61.30;100353.22;5091656;28;19913;-69
2023/10/03 04:36:29;;;;;;;;;;;;;;;15.13;60.46;100352.25;5086521;28;19923;-69
2023/10/03 04:38:54;;;;;;;;;;;;;;;15.04;61.50;100349.53;5086332;28;19959;-69
2023/10/03 04:41:20;;;;;;;;;;;;;;;14.99;61.43;100352.53;5077991;28;19916;-69
2023/10/03 04:43:45;;;;;;;;;;;;;;;14.81;61.59;100355.50;5091294;28;19912;-69
2023/10/03 04:46:11;;;;;;;;;;;;;;;14.83;61.30;100355.13;5091268;28;19924;-69
2023/10/03 04:48:39;;;;;;;;;;;;;;;14.65;62.28;100362.84;5091207;28;19916;-69
2023/10/03 04:51:04;;;;;;;;;;;;;;;14.78;61.63;100355.34;5089525;28;19939;-69
2023/10/03 04:53:30;;;;;;;;;;;;;;;14.68;62.31;100362.97;5088458;28;20040;-69
2023/10/03 04:55:55;;;;;;;;;;;;;;;14.60;62.99;100359.06;5091220;28;19916;-69
2023/10/03 04:58:22;;;;;;;;;;;;;;;14.49;63.76;100362.63;5079504;28;19916;-69
2023/10/03 05:00:47;;;;;;;;;;;;;;;14.81;63.28;100363.09;5071255;28;20407;-69
2023/10/03 05:03:13;;;;;;;;;;;;;;;14.82;62.97;100359.94;5071337;28;19913;-69
2023/10/03 05:05:38;;;;;;;;;;;;;;;14.82;63.39;100370.38;5071334;28;19912;-69
2023/10/03 05:08:04;;;;;;;;;;;;;;;14.70;65.29;100362.66;5069830;28;20387;-69
2023/10/03 05:10:30;;;;;;;;;;;;;;;14.01;69.21;100373.94;5069986;28;20541;-69
2023/10/03 05:12:57;;;;;;;;;;;;;;;14.40;67.79;100366.31;5085853;28;19916;-69
2023/10/03 05:15:23;;;;;;;;;;;;;;;14.12;68.80;100369.59;5080050;28;19916;-69
2023/10/03 05:17:48;;;;;;;;;;;;;;;14.15;69.32;100368.91;5073904;28;19974;-69
2023/10/03 05:20:15;;;;;;;;;;;;;;;13.89;69.94;100375.47;5077997;28;19921;-69
2023/10/03 05:22:41;;;;;;;;;;;;;;;13.53;71.78;100373.88;5073711;28;19912;-69
2023/10/03 05:25:09;;;;;;;;;;;;;;;13.78;70.69;100385.41;5077087;28;20439;-69
2023/10/03 05:27:35;;;;;;;;;;;;;;;13.87;69.63;100380.56;5089626;28;19916;-69
2023/10/03 05:30:04;;;;;;;;;;;;;;;13.16;72.35;100384.63;5074786;28;19916;-71
2023/10/03 05:32:30;;;;;;;;;;;;;;;12.99;73.36;100388.25;5074022;28;19981;-69
2023/10/03 05:34:55;;;;;;;;;;;;;;;12.80;74.10;100391.38;5085151;28;19952;-69
2023/10/03 05:37:21;;;;;;;;;;;;;;;12.82;74.24;100401.09;5085696;28;19916;-69
2023/10/03 05:39:46;;;;;;;;;;;;;;;12.75;74.95;100407.19;5075829;28;19912;-69
2023/10/03 05:42:11;;;;;;;;;;;;;;;13.18;72.84;100405.59;5076095;28;19916;-69
2023/10/03 05:44:37;;;;;;;;;;;;;;;13.22;72.35;100399.34;5089194;28;19916;-68
2023/10/03 05:47:03;;;;;;;;;;;;;;;13.01;72.72;100403.59;5085875;28;19921;-69
2023/10/03 05:49:28;;;;;;;;;;;;;;;12.78;73.97;100414.97;5091649;28;19943;-69
2023/10/03 05:51:55;;;;;;;;;;;;;;;13.04;73.30;100411.38;5094746;28;19912;-69
2023/10/03 05:54:27;;;;;;;;;;;;;;;13.38;71.99;100422.13;5077081;28;19962;-69
2023/10/03 05:56:52;;;;;;;;;;;;;;;13.50;70.63;100425.13;5075388;28;20343;-69
2023/10/03 05:59:18;;;;;;;;;;;;;;;13.52;70.13;100428.44;5078427;28;19924;-71
2023/10/03 06:01:44;;;;;;;;;;;;;;;13.78;69.23;100421.97;5102554;28;19923;-70
2023/10/03 06:04:09;;;;;;;;;;;;;;;13.71;69.46;100421.63;5076504;28;20512;-71
2023/10/03 06:06:34;;;;;;;;;;;;;;;13.98;68.84;100428.88;5084634;28;20006;-70
2023/10/03 06:09:00;;;;;;;;;;;;;;;14.13;67.64;100435.09;5079926;28;20320;-73
2023/10/03 06:11:25;;;;;;;;;;;;;;;14.37;66.84;100434.53;5085273;28;20088;-72
2023/10/03 06:13:51;;;;;;;;;;;;;;;14.15;66.85;100435.59;5083729;28;19916;-73
2023/10/03 06:16:17;;;;;;;;;;;;;;;14.60;66.01;100437.09;5077816;28;19943;-74
2023/10/03 06:18:42;;;;;;;;;;;;;;;14.69;65.54;100443.47;5080882;28;19922;-74
2023/10/03 06:21:07;;;;;;;;;;;;;;;14.68;65.53;100439.00;5094611;28;19912;-73
2023/10/03 06:23:33;;;;;;;;;;;;;;;14.94;64.59;100440.88;5088876;28;20023;-77
2023/10/03 06:25:59;;;;;;;;;;;;;;;14.78;65.27;100437.84;5072824;28;19931;-75
2023/10/03 06:28:24;;;;;;;;;;;;;;;15.15;63.61;100442.91;5072174;28;19920;-74
2023/10/03 06:30:52;;;;;;;;;;;;;;;15.37;62.83;100433.25;5075415;28;19916;-73
2023/10/03 06:33:18;;;;;;;;;;;;;;;15.33;62.39;100443.59;5077629;28;20410;-70
2023/10/03 06:35:43;;;;;;;;;;;;;;;15.61;61.32;100447.84;5074661;28;19920;-69
2023/10/03 06:38:08;;;;;;;;;;;;;;;15.56;61.66;100444.03;5080590;28;19916;-69
2023/10/03 06:40:34;;;;;;;;;;;;;;;15.69;61.31;100444.94;5091330;28;19912;-68
2023/10/03 06:42:59;;;;;;;;;;;;;;;15.70;61.55;100443.75;5089418;28;20379;-69
2023/10/03 06:45:24;;;;;;;;;;;;;;;15.93;61.02;100456.72;5072705;28;19928;-71
2023/10/03 06:47:50;;;;;;;;;;;;;;;15.75;61.34;100451.19;5079067;28;19916;-70
2023/10/03 06:50:15;;;;;;;;;;;;;;;15.80;61.66;100452.97;5082940;28;19924;-71
2023/10/03 06:52:40;;;;;;;;;;;;;;;16.18;60.69;100445.47;5076577;28;19945;-71
2023/10/03 06:55:06;;;;;;;;;;;;;;;16.06;61.16;100452.75;5075781;28;19999;-69
2023/10/03 06:57:32;;;;;;;;;;;;;;;16.04;61.31;100452.25;5071068;28;19912;-69
2023/10/03 06:59:57;;;;;;;;;;;;;;;16.31;60.53;100454.78;5073149;28;19927;-71
2023/10/03 07:02:23;;;;;;;;;;;;;;;16.36;60.23;100457.41;5078192;28;19931;-71
2023/10/03 07:04:48;;;;;;;;;;;;;;;16.17;61.00;100450.28;5073347;28;20399;-69
2023/10/03 07:07:13;;;;;;;;;;;;;;;16.35;60.34;100450.91;5078846;28;19920;-69
2023/10/03 07:09:39;;;;;;;;;;;;;;;16.86;58.97;100446.91;5085413;28;19931;-67
2023/10/03 07:12:07;;;;;;;;;;;;;;;16.69;58.67;100453.63;5071037;28;19969;-69
2023/10/03 07:14:33;;;;;;;;;;;;;;;16.88;59.06;100450.22;5078645;28;19927;-69
2023/10/03 07:16:58;;;;;;;;;;;;;;;17.25;57.56;100453.03;5072687;28;19913;-71
2023/10/03 07:19:24;;;;;;;;;;;;;;;17.02;57.85;100443.44;5073582;28;19923;-69
2023/10/03 07:21:51;;;;;;;;;;;;;;;16.79;58.64;100447.50;5079915;28;19926;-70
2023/10/03 07:24:18;;;;;;;;;;;;;;;17.03;57.98;100453.53;5071777;28;19916;-71
2023/10/03 07:26:43;;;;;;;;;;;;;;;17.04;56.91;100444.69;5076737;28;19916;-71
2023/10/03 07:29:08;;;;;;;;;;;;;;;17.43;56.82;100449.91;5069898;28;19947;-70
2023/10/03 07:31:34;;;;;;;;;;;;;;;17.39;55.39;100449.81;5075272;28;20002;-70
2023/10/03 07:33:59;;;;;;;;;;;;;;;17.59;55.19;100455.63;5082876;28;19925;-71
2023/10/03 07:36:25;;;;;;;;;;;;;;;18.15;54.64;100444.69;5069593;28;19960;-71
2023/10/03 07:38:50;;;;;;;;;;;;;;;18.38;53.06;100442.88;5084894;28;20497;-72
2023/10/03 07:41:18;;;;;;;;;;;;;;;18.44;52.10;100440.59;5087553;28;19916;-72
2023/10/03 07:43:53;;;;;;;;;;;;;;;18.37;51.95;100443.22;5085309;28;20014;-71
2023/10/03 07:46:21;;;;;;;;;;;;;;;18.56;50.93;100442.50;5084130;28;20528;-71
2023/10/03 07:48:48;;;;;;;;;;;;;;;18.99;52.02;100433.41;5071976;28;19928;-71
2023/10/03 07:51:17;;;;;;;;;;;;;;;19.44;48.79;100437.69;5079611;28;19924;-71
2023/10/03 07:53:43;;;;;;;;;;;;;;;19.72;47.98;100435.78;5074741;28;19959;-71
2023/10/03 07:56:25;;;;;;;;;;;;;;;19.82;46.79;100432.34;5081739;28;19952;-70
2023/10/03 07:58:53;;;;;;;;;;;;;;;19.59;48.06;100432.28;5082615;28;20014;-71
2023/10/03 08:01:19;;;;;;;;;;;;;;;20.11;47.34;100434.94;5071633;28;19948;-72
2023/10/03 08:03:45;;;;;;;;;;;;;;;20.12;45.64;100431.75;5081944;28;20027;-70
2023/10/03 08:06:14;;;;;;;;;;;;;;;19.94;46.53;100427.72;5087650;28;20002;-70
2023/10/03 08:08:40;;;;;;;;;;;;;;;21.00;47.02;100439.72;5071465;28;19928;-71
2023/10/03 08:11:06;;;;;;;;;;;;;;;21.72;51.05;100434.19;5084052;28;19919;-71
2023/10/03 08:13:38;;;;;;;;;;;;;;;22.27;44.81;100427.84;5084796;28;20006;-71
2023/10/03 08:16:04;;;;;;;;;;;;;;;20.87;43.11;100425.69;5082037;28;19948;-71
2023/10/03 08:18:35;;;;;;;;;;;;;;;22.08;42.10;100423.19;5076651;28;19924;-69
2023/10/03 08:21:03;;;;;;;;;;;;;;;22.40;43.64;100416.16;5075344;28;20019;-70
2023/10/03 08:23:29;;;;;;;;;;;;;;;23.19;43.27;100421.66;5076255;28;20292;-71
2023/10/03 08:26:01;;;;;;;;;;;;;;;23.34;43.37;100416.88;5083772;28;19912;-71
2023/10/03 08:28:28;;;;;;;;;;;;;;;24.60;42.61;100414.72;5075214;28;19970;-70
2023/10/03 08:30:53;;;;;;;;;;;;;;;24.64;40.49;100418.41;5078194;28;20010;-71
2023/10/03 08:33:19;;;;;;;;;;;;;;;24.64;42.62;100416.34;5071982;28;19970;-70
2023/10/03 08:35:46;;;;;;;;;;;;;;;24.80;39.66;100410.25;5075733;28;19974;-71
2023/10/03 08:38:13;;;;;;;;;;;;;;;24.96;39.91;100408.97;5090428;28;19961;-72
2023/10/03 08:40:42;;;;;;;;;;;;;;;25.23;37.96;100417.91;5079602;28;19924;-72
2023/10/03 08:43:11;;;;;;;;;;;;;;;24.93;35.39;100407.78;5071477;28;19912;-73
2023/10/03 08:45:52;;;;;;;;;;;;;;;24.48;35.46;100404.53;5071122;28;20364;-73
2023/10/03 08:48:24;;;;;;;;;;;;;;;24.34;36.83;100402.47;5074689;28;19924;-74
2023/10/03 08:50:52;;;;;;;;;;;;;;;24.32;36.23;100394.31;5079654;28;19927;-72
2023/10/03 08:53:27;;;;;;;;;;;;;;;24.10;37.05;100402.88;5078053;28;19998;-70
2023/10/03 08:55:57;;;;;;;;;;;;;;;23.63;37.91;100394.13;5082291;28;20048;-71
2023/10/03 08:58:25;;;;;;;;;;;;;;;23.80;37.41;100397.47;5089392;28;19916;-69
2023/10/03 09:00:51;;;;;;;;;;;;;;;24.28;37.59;100398.41;5078794;28;20594;-69
2023/10/03 09:03:17;;;;;;;;;;;;;;;24.06;38.84;100398.38;5082572;28;19941;-70
2023/10/03 09:05:43;;;;;;;;;;;;;;;24.54;36.11;100392.25;5072640;28;20377;-69
2023/10/03 09:08:09;;;;;;;;;;;;;;;24.28;35.58;100384.09;5080956;28;19968;-67
2023/10/03 09:10:42;;;;;;;;;;;;;;;24.19;36.10;100384.47;5081166;28;20010;-71
2023/10/03 09:13:14;;;;;;;;;;;;;;;24.37;36.04;100381.63;5078370;28;20065;-73
2023/10/03 09:15:42;;;;;;;;;;;;;;;24.51;36.12;100381.66;5076655;28;19927;-70
2023/10/03 09:18:10;;;;;;;;;;;;;;;25.05;36.14;100383.63;5074980;28;20397;-71
2023/10/03 09:20:35;;;;;;;;;;;;;;;25.65;34.23;100386.69;5086734;28;20065;-71
2023/10/03 09:23:07;;;;;;;;;;;;;;;25.79;37.59;100385.78;5092141;28;19959;-74
2023/10/03 09:25:33;;;;;;;;;;;;;;;25.96;35.33;100391.03;5077797;28;20353;-75
2023/10/03 09:28:05;;;;;;;;;;;;;;;26.44;35.62;100384.53;5074580;28;19917;-74
2023/10/03 09:30:37;;;;;;;;;;;;;;;27.02;32.37;100378.25;5074126;28;20435;-74
2023/10/03 09:33:06;;;;;;;;;;;;;;;26.71;32.79;100381.00;5077186;28;19917;-69
2023/10/03 09:35:33;;;;;;;;;;;;;;;26.38;34.08;100374.75;5074378;28;19939;-71
2023/10/03 09:38:02;;;;;;;;;;;;;;;26.27;32.87;100374.03;5074729;28;19976;-70
2023/10/03 09:40:35;;;;;;;;;;;;;;;26.10;33.61;100370.84;5079671;28;19943;-71
2023/10/03 09:43:01;;;;;;;;;;;;;;;26.05;32.42;100372.13;5074741;28;19912;-75
2023/10/03 09:45:27;;;;;;;;;;;;;;;25.78;32.75;100371.88;5079806;28;19931;-71
2023/10/03 09:47:58;;;;;;;;;;;;;;;25.27;33.72;100366.38;5074337;28;19920;-70
2023/10/03 09:50:26;;;;;;;;;;;;;;;25.21;33.88;100365.16;5075027;28;19975;-72
2023/10/03 09:52:52;;;;;;;;;;;;;;;24.83;32.98;100356.28;5090759;28;20359;-73
2023/10/03 09:55:21;;;;;;;;;;;;;;;24.89;33.01;100360.38;5076802;28;19975;-73
2023/10/03 09:57:52;;;;;;;;;;;;;;;24.75;34.26;100344.84;5085357;28;19974;-72
2023/10/03 10:03:05;;;;;;;;;;;;;;;24.66;34.50;100353.03;5080590;28;20456;-70
2023/10/03 10:05:32;;;;;;;;;;;;;;;24.34;34.42;100349.00;5079735;28;19916;-71
2023/10/03 10:08:18;;;;;;;;;;;;;;;24.12;35.04;100351.00;5074859;28;19924;-71
2023/10/03 10:11:07;;;;;;;;;;;;;;;24.04;35.28;100346.53;5073643;28;20537;-72
2023/10/03 10:13:36;;;;;;;;;;;;;;;24.10;35.27;100340.00;5075945;28;20062;-72
2023/10/03 10:16:23;;;;;;;;;;;;;;;24.52;34.59;100333.84;5102476;28;20007;-72
2023/10/03 10:18:51;;;;;;;;;;;;;;;24.64;34.41;100329.75;5080712;28;19916;-74
2023/10/03 10:21:20;;;;;;;;;;;;;;;24.84;34.02;100329.31;5073757;28;19913;-71
2023/10/03 10:24:03;;;;;;;;;;;;;;;24.48;33.10;100313.03;5088360;28;19916;-73
2023/10/03 10:26:31;;;;;;;;;;;;;;;24.31;34.23;100324.06;5089935;28;19916;-74
2023/10/03 10:29:03;;;;;;;;;;;;;;;24.23;34.51;100308.97;5073570;28;20102;-73
2023/10/03 10:31:34;;;;;;;;;;;;;;;24.73;33.75;100312.97;5080047;28;19928;-74
2023/10/03 10:34:18;;;;;;;;;;;;;;;24.98;32.93;100314.16;5082748;28;19924;-75
2023/10/03 10:37:01;;;;;;;;;;;;;;;25.07;33.01;100303.91;5073446;28;19916;-77
2023/10/03 10:39:46;;;;;;;;;;;;;;;25.04;33.10;100303.91;5083527;28;19920;-74
2023/10/03 10:42:14;;;;;;;;;;;;;;;24.91;33.09;100292.13;5079899;28;19917;-76
2023/10/03 10:44:58;;;;;;;;;;;;;;;24.70;33.79;100288.06;5073374;28;19924;-78
2023/10/03 10:47:24;;;;;;;;;;;;;;;24.77;33.09;100299.53;5075697;28;19938;-78
2023/10/03 10:50:00;;;;;;;;;;;;;;;25.03;33.23;100277.34;5080342;28;19916;-77
2023/10/03 10:52:25;;;;;;;;;;;;;;;25.12;33.08;100284.69;5073273;28;19916;-78
2023/10/03 10:54:51;;;;;;;;;;;;;;;25.09;32.59;100277.75;5078574;28;19912;-73
2023/10/03 10:57:21;;;;;;;;;;;;;;;24.99;33.33;100273.69;5077839;28;19916;-76
2023/10/03 10:59:47;;;;;;;;;;;;;;;25.07;33.09;100274.47;5078919;28;20321;-80
2023/10/03 11:02:16;;;;;;;;;;;;;;;25.12;33.13;100270.38;5072825;28;19999;-79
2023/10/03 11:04:41;;;;;;;;;;;;;;;25.04;32.83;100278.16;5073609;28;19923;-76
2023/10/03 11:07:07;;;;;;;;;;;;;;;25.16;33.28;100274.03;5085245;28;19912;-79
2023/10/03 11:09:37;;;;;;;;;;;;;;;25.41;32.72;100267.34;5080170;28;19991;-76
2023/10/03 11:12:06;;;;;;;;;;;;;;;25.64;31.22;100261.91;5082616;28;20307;-78
2023/10/03 11:14:33;;;;;;;;;;;;;;;25.68;31.63;100253.28;5072904;28;20032;-80
2023/10/03 11:16:58;;;;;;;;;;;;;;;25.58;32.04;100259.91;5073522;28;20429;-79
2023/10/03 11:19:24;;;;;;;;;;;;;;;25.64;31.50;100250.44;5078099;28;19921;-76
2023/10/03 11:21:49;;;;;;;;;;;;;;;25.63;31.49;100248.81;5078679;28;20386;-77
2023/10/03 11:24:15;;;;;;;;;;;;;;;25.57;31.69;100243.97;5087997;28;19917;-74
2023/10/03 11:26:44;;;;;;;;;;;;;;;25.76;30.91;100245.44;5072159;28;19960;-75
2023/10/03 11:29:09;;;;;;;;;;;;;;;25.97;31.06;100232.97;5073388;28;20019;-74
2023/10/03 11:31:39;;;;;;;;;;;;;;;25.72;31.34;100241.81;5072919;28;20062;-76
2023/10/03 11:34:04;;;;;;;;;;;;;;;25.29;31.55;100232.25;5072451;28;20395;-76
2023/10/03 11:36:39;;;;;;;;;;;;;;;25.53;31.72;100235.38;5072573;28;19912;-73
2023/10/03 11:39:04;;;;;;;;;;;;;;;25.55;31.71;100230.03;5080566;28;19920;-74
2023/10/03 11:41:33;;;;;;;;;;;;;;;25.43;31.60;100219.06;5069965;28;19923;-72
2023/10/03 11:43:59;;;;;;;;;;;;;;;25.48;31.21;100224.34;5083461;28;20435;-74
2023/10/03 11:46:25;;;;;;;;;;;;;;;25.68;30.98;100215.22;5084803;28;19916;-74
2023/10/03 11:48:56;;;;;;;;;;;;;;;25.72;31.37;100219.69;5082725;28;20010;-73
2023/10/03 11:51:22;;;;;;;;;;;;;;;25.98;30.38;100208.81;5088010;28;19946;-73
2023/10/03 11:53:47;;;;;;;;;;;;;;;26.04;30.18;100212.03;5086088;28;20323;-72
2023/10/03 11:56:12;;;;;;;;;;;;;;;25.85;30.19;100219.19;5078365;28;19923;-73
2023/10/03 11:58:38;;;;;;;;;;;;;;;26.06;29.16;100204.66;5075174;28;19921;-73
2023/10/03 12:01:03;;;;;;;;;;;;;;;26.12;29.50;100207.88;5072721;28;20017;-74
2023/10/03 12:03:30;;;;;;;;;;;;;;;25.78;30.12;100205.72;5073986;28;19924;-75
2023/10/03 12:05:57;;;;;;;;;;;;;;;25.88;29.88;100199.09;5085867;28;19919;-73
2023/10/03 12:08:23;;;;;;;;;;;;;;;25.99;29.38;100192.44;5081854;28;20371;-75
2023/10/03 12:10:49;;;;;;;;;;;;;;;26.48;28.67;100195.22;5081803;28;20296;-75
2023/10/03 12:13:15;;;;;;;;;;;;;;;26.93;27.90;100196.34;5070961;28;19970;-76
2023/10/03 12:15:45;;;;;;;;;;;;;;;27.19;28.11;100192.66;5071893;28;19912;-76
2023/10/03 12:18:15;;;;;;;;;;;;;;;27.11;28.47;100185.44;5071403;28;19917;-77
2023/10/03 12:20:41;;;;;;;;;;;;;;;26.63;28.97;100185.22;5081383;28;20388;-76
2023/10/03 12:23:07;;;;;;;;;;;;;;;26.48;28.88;100178.84;5090088;28;19960;-76
2023/10/03 12:25:32;;;;;;;;;;;;;;;26.77;28.25;100181.34;5078512;28;20295;-75
2023/10/03 12:27:58;;;;;;;;;;;;;;;27.04;28.08;100171.16;5077453;28;19959;-76
2023/10/03 12:30:23;;;;;;;;;;;;;;;26.64;28.20;100163.06;5074695;28;19925;-74
2023/10/03 12:32:49;;;;;;;;;;;;;;;27.09;28.46;100164.13;5076937;28;19924;-75
2023/10/03 12:35:15;;;;;;;;;;;;;;;27.15;28.46;100162.38;5069655;28;20296;-79
2023/10/03 12:37:44;;;;;;;;;;;;;;;26.61;29.18;100155.34;5070719;28;20410;-75
2023/10/03 12:40:13;;;;;;;;;;;;;;;26.65;28.64;100163.91;5085175;28;19916;-75
2023/10/03 12:42:41;;;;;;;;;;;;;;;26.76;28.06;100159.63;5081857;28;20314;-75